Time;durP1;ratioP1;P1;durP2;ratioP2;P2;SDS_P1;SDS_P2;PMS_P1;PMS_P2;Temp;Humidity;BMP_temperature;BMP_pressure;BME280_temperature;BME280_humidity;BME280_pressure;Samples;Min_cycle;Max_cycle;Signal;HPM_P1;HPM_P2
2023/08/15 00:01:46;;;;;;;7.33;6.87;;;;;;;;;;5019400;28;20480;-81
2023/08/15 00:04:12;;;;;;;6.10;5.80;;;;;;;;;;5015027;28;20436;-80
2023/08/15 00:06:38;;;;;;;7.13;6.83;;;;;;;;;;5017837;28;20481;-81
2023/08/15 00:09:04;;;;;;;7.37;6.80;;;;;;;;;;5017663;28;20438;-80
2023/08/15 00:11:30;;;;;;;8.13;7.57;;;;;;;;;;5014532;28;20462;-82
2023/08/15 00:13:56;;;;;;;6.77;6.47;;;;;;;;;;5016198;28;20465;-81
2023/08/15 00:16:22;;;;;;;8.33;7.83;;;;;;;;;;5015031;28;20879;-82
2023/08/15 00:18:49;;;;;;;7.20;6.77;;;;;;;;;;5017972;28;20445;-81
2023/08/15 00:21:15;;;;;;;7.07;6.80;;;;;;;;;;5020701;28;20453;-82
2023/08/15 00:23:41;;;;;;;7.10;6.80;;;;;;;;;;5018026;28;20422;-82
2023/08/15 00:26:07;;;;;;;7.40;7.00;;;;;;;;;;5015884;28;20434;-80
2023/08/15 00:28:33;;;;;;;8.23;7.40;;;;;;;;;;5020143;28;20435;-82
2023/08/15 00:30:59;;;;;;;7.87;7.20;;;;;;;;;;5018343;28;20473;-81
2023/08/15 00:33:25;;;;;;;8.10;7.47;;;;;;;;;;5026543;28;20938;-81
2023/08/15 00:35:51;;;;;;;8.73;8.07;;;;;;;;;;5025844;28;20485;-81
2023/08/15 00:38:17;;;;;;;7.70;7.30;;;;;;;;;;5015578;28;20489;-81
2023/08/15 00:40:43;;;;;;;7.47;7.10;;;;;;;;;;5012969;28;20435;-81
2023/08/15 00:43:10;;;;;;;8.03;7.47;;;;;;;;;;5018530;28;20512;-80
2023/08/15 00:45:39;;;;;;;8.70;8.10;;;;;;;;;;5025980;28;20434;-81
2023/08/15 00:48:06;;;;;;;9.37;8.10;;;;;;;;;;5024902;28;20546;-81
2023/08/15 00:50:33;;;;;;;7.37;7.00;;;;;;;;;;5025560;28;20477;-80
2023/08/15 00:52:59;;;;;;;8.23;7.73;;;;;;;;;;5025154;28;20765;-80
2023/08/15 00:55:26;;;;;;;8.50;7.93;;;;;;;;;;5025080;28;20517;-80
2023/08/15 00:57:52;;;;;;;9.17;8.40;;;;;;;;;;5024561;28;20426;-80
2023/08/15 01:00:18;;;;;;;8.90;8.20;;;;;;;;;;5023626;28;20439;-81
2023/08/15 01:02:44;;;;;;;8.97;8.33;;;;;;;;;;5020774;28;20821;-81
2023/08/15 01:05:12;;;;;;;8.93;8.07;;;;;;;;;;5019997;28;20517;-81
2023/08/15 01:07:38;;;;;;;8.43;8.03;;;;;;;;;;5024903;28;20771;-82
2023/08/15 01:10:05;;;;;;;9.10;8.40;;;;;;;;;;5022190;28;20446;-80
2023/08/15 01:12:34;;;;;;;8.83;8.40;;;;;;;;;;5022586;28;21264;-81
2023/08/15 01:15:26;;;;;;;8.13;7.67;;;;;;;;;;5024163;28;20439;-82
2023/08/15 01:18:00;;;;;;;9.23;8.70;;;;;;;;;;5019354;28;20465;-81
2023/08/15 01:20:28;;;;;;;8.60;8.20;;;;;;;;;;5023527;28;20541;-81
2023/08/15 01:22:57;;;;;;;8.63;8.17;;;;;;;;;;5023537;28;20434;-81
2023/08/15 01:25:25;;;;;;;8.70;8.30;;;;;;;;;;5022228;28;20488;-80
2023/08/15 01:27:51;;;;;;;8.70;8.30;;;;;;;;;;5024345;28;21175;-81
2023/08/15 01:30:18;;;;;;;9.67;9.00;;;;;;;;;;5024876;28;20456;-82
2023/08/15 01:33:00;;;;;;;9.60;9.03;;;;;;;;;;5024629;28;21069;-81
2023/08/15 01:35:31;;;;;;;9.80;8.90;;;;;;;;;;5020789;28;20466;-81
2023/08/15 01:38:03;;;;;;;9.13;8.47;;;;;;;;;;5016019;28;20423;-81
2023/08/15 01:40:30;;;;;;;13.07;9.37;;;;;;;;;;4999836;28;20484;-82
2023/08/15 01:42:58;;;;;;;9.23;8.73;;;;;;;;;;5018620;28;20485;-81
2023/08/15 01:45:25;;;;;;;10.07;9.07;;;;;;;;;;5024317;28;20442;-83
2023/08/15 01:47:52;;;;;;;9.23;8.13;;;;;;;;;;5024033;28;20441;-82
2023/08/15 01:50:18;;;;;;;9.70;8.90;;;;;;;;;;5023170;28;20441;-83
2023/08/15 01:52:44;;;;;;;8.90;8.40;;;;;;;;;;5024299;28;20537;-82
2023/08/15 01:55:10;;;;;;;8.50;8.20;;;;;;;;;;5024404;28;20486;-82
2023/08/15 01:57:36;;;;;;;9.40;8.50;;;;;;;;;;5024540;28;20441;-81
2023/08/15 02:00:03;;;;;;;9.20;8.60;;;;;;;;;;5006343;28;20435;-81
2023/08/15 02:02:29;;;;;;;9.07;8.50;;;;;;;;;;5011154;28;20498;-81
2023/08/15 02:04:58;;;;;;;9.80;8.97;;;;;;;;;;5020957;28;20953;-82
2023/08/15 02:07:24;;;;;;;8.77;8.27;;;;;;;;;;5006388;28;20466;-81
2023/08/15 02:09:50;;;;;;;8.83;8.20;;;;;;;;;;5011005;28;20471;-84
2023/08/15 02:12:16;;;;;;;8.30;7.80;;;;;;;;;;5021039;28;21323;-81
2023/08/15 02:14:42;;;;;;;10.07;9.43;;;;;;;;;;5028101;28;20453;-81
2023/08/15 02:17:08;;;;;;;8.00;7.70;;;;;;;;;;5027842;28;20431;-82
2023/08/15 02:19:34;;;;;;;9.30;8.53;;;;;;;;;;5012097;28;20470;-82
2023/08/15 02:22:00;;;;;;;8.40;8.00;;;;;;;;;;5028513;28;20415;-80
2023/08/15 02:24:26;;;;;;;8.10;7.50;;;;;;;;;;5021831;28;20434;-79
2023/08/15 02:26:52;;;;;;;8.67;8.27;;;;;;;;;;5020164;28;20435;-80
2023/08/15 02:29:18;;;;;;;8.77;8.17;;;;;;;;;;5012800;28;20436;-80
2023/08/15 02:31:44;;;;;;;8.27;7.87;;;;;;;;;;5024062;28;20470;-80
2023/08/15 02:34:10;;;;;;;7.50;7.10;;;;;;;;;;5025888;28;20448;-80
2023/08/15 02:36:36;;;;;;;8.73;8.23;;;;;;;;;;5012027;28;20447;-80
2023/08/15 02:39:03;;;;;;;8.13;7.67;;;;;;;;;;5023560;28;20430;-81
2023/08/15 02:41:29;;;;;;;8.60;8.10;;;;;;;;;;5025080;28;20538;-80
2023/08/15 02:43:55;;;;;;;7.47;7.23;;;;;;;;;;5021398;28;20442;-80
2023/08/15 02:46:22;;;;;;;8.00;7.50;;;;;;;;;;5022973;28;20475;-81
2023/08/15 02:48:48;;;;;;;7.23;6.87;;;;;;;;;;5015948;28;20442;-80
2023/08/15 02:51:14;;;;;;;7.80;7.33;;;;;;;;;;5022995;28;20833;-81
2023/08/15 02:53:40;;;;;;;8.17;7.77;;;;;;;;;;5027830;28;20476;-79
2023/08/15 02:56:06;;;;;;;8.93;8.40;;;;;;;;;;5025037;28;20953;-80
2023/08/15 02:58:32;;;;;;;8.27;7.97;;;;;;;;;;5027500;28;20437;-80
2023/08/15 03:00:58;;;;;;;9.43;8.80;;;;;;;;;;5023332;28;20781;-80
2023/08/15 03:03:25;;;;;;;9.03;8.63;;;;;;;;;;5027173;28;20509;-81
2023/08/15 03:05:51;;;;;;;9.60;8.70;;;;;;;;;;5025787;28;20442;-80
2023/08/15 03:08:17;;;;;;;8.70;8.23;;;;;;;;;;5025878;28;20510;-81
2023/08/15 03:10:43;;;;;;;8.80;8.30;;;;;;;;;;5027471;28;20493;-80
2023/08/15 03:13:09;;;;;;;9.83;9.13;;;;;;;;;;5026185;28;20419;-81
2023/08/15 03:18:39;;;;;;;13.87;12.57;;;;;;;;;;5025467;28;21264;-79
2023/08/15 03:21:05;;;;;;;8.23;7.83;;;;;;;;;;5022122;28;20467;-80
2023/08/15 03:29:54;;;;;;;9.20;8.60;;;;;;;;;;5026309;28;20414;-80
2023/08/15 03:35:24;;;;;;;8.47;8.07;;;;;;;;;;5025777;28;20970;-79
2023/08/15 03:37:50;;;;;;;8.70;8.20;;;;;;;;;;5011840;28;20443;-78
2023/08/15 03:43:45;;;;;;;8.40;7.97;;;;;;;;;;5007915;28;20507;-79
2023/08/15 03:46:11;;;;;;;10.03;9.30;;;;;;;;;;5022360;28;20423;-79
2023/08/15 03:48:37;;;;;;;10.67;9.67;;;;;;;;;;5010807;28;20546;-79
2023/08/15 03:51:03;;;;;;;10.53;9.73;;;;;;;;;;5000534;28;20463;-79
2023/08/15 03:53:29;;;;;;;10.57;9.80;;;;;;;;;;5011917;28;20440;-78
2023/08/15 03:55:55;;;;;;;10.40;9.77;;;;;;;;;;5017575;28;20434;-79
2023/08/15 03:58:22;;;;;;;12.63;11.33;;;;;;;;;;4992312;28;20517;-79
2023/08/15 04:00:48;;;;;;;10.20;9.50;;;;;;;;;;5020742;28;20444;-78
2023/08/15 04:03:14;;;;;;;10.77;9.97;;;;;;;;;;5019508;28;20451;-79
2023/08/15 04:05:44;;;;;;;10.07;9.27;;;;;;;;;;5021676;28;20828;-78
2023/08/15 04:08:10;;;;;;;11.80;10.70;;;;;;;;;;5024259;28;20438;-78
2023/08/15 04:10:39;;;;;;;11.80;10.67;;;;;;;;;;5022071;28;20895;-78
2023/08/15 04:13:08;;;;;;;12.53;11.70;;;;;;;;;;5023709;28;21023;-79
2023/08/15 04:15:35;;;;;;;10.20;9.27;;;;;;;;;;5023611;28;20795;-77
2023/08/15 04:21:11;;;;;;;10.70;9.67;;;;;;;;;;4971845;28;1194468;-78
2023/08/15 04:23:37;;;;;;;10.03;9.23;;;;;;;;;;5024645;28;20410;-79
2023/08/15 04:26:03;;;;;;;9.37;8.70;;;;;;;;;;5017241;28;20434;-79
2023/08/15 04:28:29;;;;;;;8.73;7.93;;;;;;;;;;5022071;28;20446;-78
2023/08/15 04:30:55;;;;;;;9.90;9.20;;;;;;;;;;5021789;28;20534;-78
2023/08/15 04:33:21;;;;;;;9.90;9.00;;;;;;;;;;5017287;28;20477;-79
2023/08/15 04:35:47;;;;;;;9.50;8.60;;;;;;;;;;5024398;28;20443;-79
2023/08/15 04:38:14;;;;;;;9.63;8.83;;;;;;;;;;5022895;28;20445;-78
2023/08/15 04:40:40;;;;;;;8.90;8.20;;;;;;;;;;5020527;28;20440;-79
2023/08/15 04:43:10;;;;;;;8.17;7.70;;;;;;;;;;5023720;28;20430;-79
2023/08/15 04:45:40;;;;;;;8.63;7.73;;;;;;;;;;5022531;28;20921;-76
2023/08/15 04:48:06;;;;;;;9.67;8.70;;;;;;;;;;5020193;28;20423;-78
2023/08/15 04:50:32;;;;;;;8.43;7.87;;;;;;;;;;5003886;28;20457;-79
2023/08/15 04:52:58;;;;;;;7.43;6.97;;;;;;;;;;5024904;28;20434;-77
2023/08/15 04:55:25;;;;;;;8.20;7.50;;;;;;;;;;5000333;28;20962;-79
2023/08/15 04:57:51;;;;;;;8.47;7.63;;;;;;;;;;5023719;28;20430;-79
2023/08/15 05:00:19;;;;;;;7.70;7.13;;;;;;;;;;5023503;28;20453;-78
2023/08/15 05:02:45;;;;;;;8.37;7.80;;;;;;;;;;5019797;28;20479;-78
2023/08/15 05:05:11;;;;;;;8.80;8.20;;;;;;;;;;5002633;28;20539;-79
2023/08/15 05:07:40;;;;;;;9.80;9.00;;;;;;;;;;5015814;28;20508;-78
2023/08/15 05:10:06;;;;;;;8.47;7.97;;;;;;;;;;5019891;28;20442;-78
2023/08/15 05:12:32;;;;;;;8.80;8.10;;;;;;;;;;5024187;28;20552;-79
2023/08/15 05:14:58;;;;;;;9.20;8.70;;;;;;;;;;5015775;28;20449;-79
2023/08/15 05:17:24;;;;;;;9.87;9.07;;;;;;;;;;5024364;28;20462;-77
2023/08/15 05:19:50;;;;;;;9.77;8.87;;;;;;;;;;5018959;28;20816;-79
2023/08/15 05:22:16;;;;;;;9.63;8.73;;;;;;;;;;5021873;28;20997;-79
2023/08/15 05:24:42;;;;;;;9.03;8.33;;;;;;;;;;5016596;28;20443;-78
2023/08/15 05:27:12;;;;;;;9.97;9.00;;;;;;;;;;5000700;28;20612;-78
2023/08/15 05:29:40;;;;;;;8.47;7.97;;;;;;;;;;5011607;28;20872;-78
2023/08/15 05:32:06;;;;;;;9.47;8.57;;;;;;;;;;5023629;28;20572;-79
2023/08/15 05:34:32;;;;;;;9.43;8.53;;;;;;;;;;5012688;28;20456;-79
2023/08/15 05:36:58;;;;;;;9.00;8.27;;;;;;;;;;5021776;28;20466;-79
2023/08/15 05:39:24;;;;;;;8.20;7.63;;;;;;;;;;5023588;28;20462;-79
2023/08/15 05:41:50;;;;;;;8.90;8.10;;;;;;;;;;5021561;28;20466;-77
2023/08/15 05:44:16;;;;;;;8.83;8.40;;;;;;;;;;5002874;28;21051;-78
2023/08/15 05:46:42;;;;;;;10.03;9.13;;;;;;;;;;5005006;28;21105;-77
2023/08/15 05:49:09;;;;;;;9.53;8.73;;;;;;;;;;5018702;28;20419;-79
2023/08/15 05:51:35;;;;;;;9.43;8.83;;;;;;;;;;5011717;28;20470;-79
2023/08/15 05:54:01;;;;;;;9.20;8.30;;;;;;;;;;5022903;28;20505;-80
2023/08/15 05:56:27;;;;;;;8.30;7.90;;;;;;;;;;5021325;28;20508;-77
2023/08/15 05:58:53;;;;;;;9.20;8.80;;;;;;;;;;5024076;28;20415;-79
2023/08/15 06:01:21;;;;;;;8.80;7.97;;;;;;;;;;5017120;28;20500;-79
2023/08/15 06:03:47;;;;;;;8.87;8.20;;;;;;;;;;5000637;28;20496;-80
2023/08/15 06:06:13;;;;;;;8.13;7.70;;;;;;;;;;5022479;28;20438;-78
2023/08/15 06:08:39;;;;;;;8.30;7.63;;;;;;;;;;4998637;28;21137;-78
2023/08/15 06:11:06;;;;;;;7.80;7.07;;;;;;;;;;5016440;28;20454;-79
2023/08/15 06:13:32;;;;;;;8.13;7.40;;;;;;;;;;5018011;28;20501;-80
2023/08/15 06:16:01;;;;;;;8.07;7.47;;;;;;;;;;5016689;28;20445;-79
2023/08/15 06:18:27;;;;;;;9.13;8.27;;;;;;;;;;5024374;28;20466;-80
2023/08/15 06:20:53;;;;;;;8.90;8.13;;;;;;;;;;5029323;28;20430;-79
2023/08/15 06:23:19;;;;;;;8.87;8.00;;;;;;;;;;5020548;28;20468;-80
2023/08/15 06:25:45;;;;;;;10.03;9.17;;;;;;;;;;5024003;28;20434;-80
2023/08/15 06:28:11;;;;;;;10.40;9.40;;;;;;;;;;5002022;28;20504;-79
2023/08/15 06:30:41;;;;;;;9.70;9.10;;;;;;;;;;5021103;28;20438;-78
2023/08/15 06:33:07;;;;;;;9.10;8.50;;;;;;;;;;5021047;28;20450;-79
2023/08/15 06:35:33;;;;;;;8.80;8.20;;;;;;;;;;5019314;28;20942;-81
2023/08/15 06:38:00;;;;;;;9.93;9.20;;;;;;;;;;5022700;28;20956;-81
2023/08/15 06:40:26;;;;;;;9.77;9.07;;;;;;;;;;5021139;28;20430;-80
2023/08/15 06:42:52;;;;;;;9.80;9.20;;;;;;;;;;5019846;28;20460;-81
2023/08/15 06:45:19;;;;;;;9.87;9.10;;;;;;;;;;5016081;28;20430;-79
2023/08/15 06:47:46;;;;;;;10.80;9.90;;;;;;;;;;5024494;28;20430;-80
2023/08/15 06:50:12;;;;;;;252.47;61.97;;;;;;;;;;5018052;28;20473;-82
2023/08/15 06:52:38;;;;;;;62.47;24.00;;;;;;;;;;5023487;28;20459;-80
2023/08/15 06:55:04;;;;;;;10.87;9.87;;;;;;;;;;5030117;28;20465;-81
2023/08/15 06:57:31;;;;;;;14.13;10.27;;;;;;;;;;5012629;28;20579;-78
2023/08/15 06:59:57;;;;;;;12.40;11.10;;;;;;;;;;5024579;28;20438;-77
2023/08/15 07:02:23;;;;;;;11.93;10.70;;;;;;;;;;5023131;28;20446;-77
2023/08/15 07:04:50;;;;;;;11.87;9.30;;;;;;;;;;5026436;28;20438;-81
2023/08/15 07:07:17;;;;;;;16.80;15.07;;;;;;;;;;5019726;28;20518;-80
2023/08/15 07:09:44;;;;;;;11.70;10.53;;;;;;;;;;5013152;28;20539;-80
2023/08/15 07:12:10;;;;;;;12.17;10.70;;;;;;;;;;5016924;28;20482;-79
2023/08/15 07:14:36;;;;;;;16.37;11.20;;;;;;;;;;5024293;28;20805;-77
2023/08/15 07:17:02;;;;;;;9.43;8.77;;;;;;;;;;5024824;28;20443;-77
2023/08/15 07:19:28;;;;;;;9.57;8.73;;;;;;;;;;5013974;28;20535;-77
2023/08/15 07:21:54;;;;;;;9.83;9.20;;;;;;;;;;5017374;28;20967;-77
2023/08/15 07:24:21;;;;;;;9.70;9.10;;;;;;;;;;5018846;28;20418;-78
2023/08/15 07:26:47;;;;;;;9.27;8.60;;;;;;;;;;5020266;28;20442;-76
2023/08/15 07:29:13;;;;;;;8.60;7.90;;;;;;;;;;5011045;28;20818;-78
2023/08/15 07:31:41;;;;;;;7.70;7.00;;;;;;;;;;5004213;28;20458;-75
2023/08/15 07:34:07;;;;;;;7.93;7.27;;;;;;;;;;5019352;28;20431;-75
2023/08/15 07:36:33;;;;;;;7.87;7.17;;;;;;;;;;5016050;28;20428;-75
2023/08/15 07:38:59;;;;;;;7.03;6.63;;;;;;;;;;5018948;28;20814;-76
2023/08/15 07:41:25;;;;;;;6.93;6.33;;;;;;;;;;5004258;28;20466;-74
2023/08/15 07:43:51;;;;;;;6.80;6.27;;;;;;;;;;5017066;28;20435;-76
2023/08/15 07:46:17;;;;;;;6.97;6.40;;;;;;;;;;5017302;28;20438;-76
2023/08/15 07:48:44;;;;;;;6.83;6.20;;;;;;;;;;5013008;28;20450;-74
2023/08/15 07:51:10;;;;;;;6.30;5.80;;;;;;;;;;5014476;28;20808;-78
2023/08/15 07:53:36;;;;;;;7.27;6.80;;;;;;;;;;5022274;28;20449;-77
2023/08/15 07:56:03;;;;;;;4.47;4.20;;;;;;;;;;5004714;28;20781;-78
2023/08/15 07:58:29;;;;;;;4.87;4.60;;;;;;;;;;5022743;28;20435;-76
2023/08/15 08:00:55;;;;;;;3.70;3.60;;;;;;;;;;5020586;28;20469;-77
2023/08/15 08:28:32;;;;;;;4.07;3.67;;;;;;;;;;5010044;28;20407;-93
2023/08/15 09:50:04;;;;;;;2.00;1.47;;;;;;;;;;5006903;28;20218;-76
2023/08/15 09:52:31;;;;;;;1.53;1.40;;;;;;;;;;5010375;28;20913;-75
2023/08/15 09:54:58;;;;;;;1.00;1.00;;;;;;;;;;5023553;28;20407;-77
2023/08/15 09:57:24;;;;;;;1.40;1.40;;;;;;;;;;5022383;28;20446;-77
2023/08/15 09:59:50;;;;;;;1.57;1.47;;;;;;;;;;5019397;28;20434;-77
2023/08/15 10:02:27;;;;;;;1.17;1.17;;;;;;;;;;5018181;28;20960;-77
2023/08/15 10:05:00;;;;;;;1.87;1.87;;;;;;;;;;5017819;28;20422;-77
2023/08/15 10:07:28;;;;;;;1.77;1.67;;;;;;;;;;5019939;28;20431;-77
2023/08/15 10:09:55;;;;;;;1.43;1.40;;;;;;;;;;5022014;28;20548;-76
2023/08/15 10:12:24;;;;;;;1.63;1.53;;;;;;;;;;5028784;28;20438;-77
2023/08/15 10:15:08;;;;;;;1.70;1.70;;;;;;;;;;5021868;28;20800;-75
2023/08/15 10:17:35;;;;;;;1.97;1.80;;;;;;;;;;5021403;28;20445;-78
2023/08/15 10:20:02;;;;;;;10.63;9.63;;;;;;;;;;5022073;28;20423;-75
2023/08/15 10:22:30;;;;;;;20.83;19.13;;;;;;;;;;5021429;28;20532;-76
2023/08/15 10:25:05;;;;;;;2.20;2.10;;;;;;;;;;5020394;28;20439;-76
2023/08/15 10:27:31;;;;;;;1.73;1.63;;;;;;;;;;5011898;28;20446;-75
2023/08/15 10:29:58;;;;;;;1.90;1.90;;;;;;;;;;5023101;28;20426;-82
2023/08/15 10:32:30;;;;;;;1.43;1.33;;;;;;;;;;5025752;28;20430;-75
2023/08/15 10:34:59;;;;;;;2.27;2.17;;;;;;;;;;5017623;28;20569;-74
2023/08/15 10:37:33;;;;;;;2.20;2.20;;;;;;;;;;5023409;28;20449;-75
2023/08/15 10:40:20;;;;;;;2.13;2.03;;;;;;;;;;5022033;28;20526;-77
2023/08/15 10:43:02;;;;;;;1.87;1.87;;;;;;;;;;5021122;28;20482;-77
2023/08/15 10:45:30;;;;;;;2.27;2.17;;;;;;;;;;5013994;28;20573;-76
2023/08/15 10:47:58;;;;;;;2.30;2.30;;;;;;;;;;5013334;28;20524;-76
2023/08/15 10:50:24;;;;;;;1.97;1.87;;;;;;;;;;5008226;28;20450;-76
2023/08/15 10:53:04;;;;;;;2.03;1.93;;;;;;;;;;4999732;28;20451;-76
2023/08/15 10:55:33;;;;;;;2.07;2.07;;;;;;;;;;5004304;28;20438;-76
2023/08/15 10:58:01;;;;;;;1.90;1.80;;;;;;;;;;5005198;28;20501;-78
2023/08/15 11:00:27;;;;;;;1.80;1.80;;;;;;;;;;5014781;28;20487;-78
2023/08/15 11:02:54;;;;;;;2.37;2.27;;;;;;;;;;5015653;28;20477;-77
2023/08/15 11:05:20;;;;;;;2.73;2.10;;;;;;;;;;5001442;28;21029;-76
2023/08/15 11:07:46;;;;;;;2.10;2.00;;;;;;;;;;5001165;28;20459;-76
2023/08/15 11:10:13;;;;;;;2.20;1.73;;;;;;;;;;5007252;28;20494;-77
2023/08/15 11:12:46;;;;;;;2.13;2.03;;;;;;;;;;5011752;28;20443;-78
2023/08/15 11:15:12;;;;;;;1.90;1.80;;;;;;;;;;5007625;28;20477;-78
2023/08/15 11:17:38;;;;;;;2.07;1.90;;;;;;;;;;5007660;28;20457;-80
2023/08/15 11:20:05;;;;;;;2.97;1.97;;;;;;;;;;5002151;28;20450;-79
2023/08/15 11:22:31;;;;;;;2.10;2.10;;;;;;;;;;4997884;28;20706;-78
2023/08/15 11:24:57;;;;;;;2.57;2.47;;;;;;;;;;5000162;28;20430;-76
2023/08/15 11:27:24;;;;;;;2.20;2.07;;;;;;;;;;4985581;28;20860;-77
2023/08/15 11:29:56;;;;;;;3.03;2.20;;;;;;;;;;5010988;28;20478;-77
2023/08/15 11:32:25;;;;;;;6.53;6.23;;;;;;;;;;5008259;28;20435;-78
2023/08/15 11:34:52;;;;;;;2.33;2.23;;;;;;;;;;4997952;28;20851;-78
2023/08/15 11:37:19;;;;;;;2.77;2.50;;;;;;;;;;4995956;28;20451;-77
2023/08/15 11:39:52;;;;;;;1.83;1.83;;;;;;;;;;4986581;28;20930;-79
2023/08/15 11:42:19;;;;;;;1.50;1.50;;;;;;;;;;5009410;28;20479;-80
2023/08/15 11:44:48;;;;;;;2.10;1.90;;;;;;;;;;5006850;28;20443;-74
2023/08/15 11:47:14;;;;;;;2.00;1.90;;;;;;;;;;5004419;28;20452;-75
2023/08/15 11:49:40;;;;;;;5.10;4.90;;;;;;;;;;4998264;28;20998;-76
2023/08/15 11:52:07;;;;;;;2.60;2.50;;;;;;;;;;5023433;28;20434;-76
2023/08/15 11:54:33;;;;;;;2.60;2.50;;;;;;;;;;5017367;28;20484;-75
2023/08/15 11:56:59;;;;;;;4.43;3.00;;;;;;;;;;5019731;28;20442;-76
2023/08/15 11:59:25;;;;;;;3.00;2.80;;;;;;;;;;5021453;28;20904;-78
2023/08/15 12:01:51;;;;;;;2.83;2.43;;;;;;;;;;5016795;28;20474;-78
2023/08/15 12:04:17;;;;;;;2.10;2.10;;;;;;;;;;5011624;28;20533;-76
2023/08/15 12:06:46;;;;;;;2.40;2.30;;;;;;;;;;5022525;28;20466;-77
2023/08/15 12:09:12;;;;;;;2.10;2.00;;;;;;;;;;5022673;28;20495;-76
2023/08/15 12:11:38;;;;;;;2.10;2.10;;;;;;;;;;5005484;28;20481;-77
2023/08/15 12:14:05;;;;;;;2.60;2.40;;;;;;;;;;5022653;28;20442;-78
2023/08/15 12:16:34;;;;;;;2.37;2.27;;;;;;;;;;5022542;28;20449;-78
2023/08/15 12:19:01;;;;;;;2.30;2.20;;;;;;;;;;5022104;28;20855;-77
2023/08/15 12:21:27;;;;;;;2.13;2.03;;;;;;;;;;5020733;28;21044;-77
2023/08/15 12:23:53;;;;;;;2.30;2.20;;;;;;;;;;5021432;28;20458;-78
2023/08/15 12:26:19;;;;;;;2.27;2.17;;;;;;;;;;5018618;28;20418;-78
2023/08/15 12:28:45;;;;;;;2.40;2.30;;;;;;;;;;5021788;28;20476;-76
2023/08/15 12:31:11;;;;;;;1.97;1.93;;;;;;;;;;5019465;28;20529;-77
2023/08/15 12:33:37;;;;;;;1.93;1.77;;;;;;;;;;5023239;28;20446;-78
2023/08/15 13:24:05;;;;;;;2.30;2.30;;;;;;;;;;4992640;28;20523;-77
2023/08/15 13:26:31;;;;;;;2.80;2.60;;;;;;;;;;4995862;28;20508;-77
2023/08/15 13:28:59;;;;;;;2.10;2.10;;;;;;;;;;5008664;28;20505;-78
2023/08/15 13:31:25;;;;;;;5.27;2.97;;;;;;;;;;5006835;28;21049;-77
2023/08/15 13:33:51;;;;;;;2.00;1.90;;;;;;;;;;5011945;28;20441;-77
2023/08/15 13:36:17;;;;;;;1.93;1.93;;;;;;;;;;5004859;28;20451;-77
2023/08/15 13:38:43;;;;;;;2.37;2.17;;;;;;;;;;5002707;28;20996;-78
2023/08/15 13:41:09;;;;;;;2.00;2.00;;;;;;;;;;4997288;28;21263;-79
2023/08/15 13:43:42;;;;;;;2.43;2.33;;;;;;;;;;4988521;28;20464;-79
2023/08/15 14:15:09;;;;;;;2.67;2.67;;;;;;;;;;5013303;28;20453;-81
2023/08/15 14:17:38;;;;;;;2.83;2.63;;;;;;;;;;5019632;28;21017;-77
2023/08/15 14:20:05;;;;;;;3.00;2.80;;;;;;;;;;5013163;28;20443;-78
2023/08/15 14:22:51;;;;;;;2.97;2.80;;;;;;;;;;5018847;28;20882;-78
2023/08/15 14:25:17;;;;;;;2.87;2.77;;;;;;;;;;5023623;28;20402;-76
2023/08/15 14:27:43;;;;;;;2.17;2.07;;;;;;;;;;5026019;28;20423;-79
2023/08/15 14:30:11;;;;;;;3.20;3.00;;;;;;;;;;5015848;28;20501;-76
2023/08/15 14:32:37;;;;;;;2.93;2.70;;;;;;;;;;5017844;28;20427;-78
2023/08/15 14:44:14;;;;;;;5.20;2.70;;;;;;;;;;5014646;28;20476;-79
2023/08/15 14:52:47;;;;;;;2.63;2.53;;;;;;;;;;5017273;28;20435;-76
2023/08/15 14:55:13;;;;;;;2.50;2.47;;;;;;;;;;5018828;28;20434;-78
2023/08/15 14:57:39;;;;;;;3.50;3.23;;;;;;;;;;4998437;28;20439;-79
2023/08/15 15:00:09;;;;;;;3.17;2.97;;;;;;;;;;5012842;28;20438;-78
2023/08/15 15:11:46;;;;;;;3.00;2.90;;;;;;;;;;5006852;28;20986;-80
2023/08/15 15:14:12;;;;;;;3.63;3.40;;;;;;;;;;5025926;28;20423;-82
2023/08/15 15:16:38;;;;;;;6.50;6.00;;;;;;;;;;5005142;28;20502;-80
2023/08/15 15:19:04;;;;;;;2.93;2.83;;;;;;;;;;4988398;28;20452;-80
2023/08/15 15:58:14;;;;;;;3.60;3.30;;;;;;;;;;5002634;28;20418;-78
2023/08/15 16:00:41;;;;;;;3.27;3.10;;;;;;;;;;5003401;28;20883;-81
2023/08/15 16:03:07;;;;;;;4.27;3.77;;;;;;;;;;5004105;28;20664;-79
2023/08/15 16:05:33;;;;;;;4.90;3.67;;;;;;;;;;5004035;28;20703;-79
2023/08/15 16:07:59;;;;;;;2.80;2.70;;;;;;;;;;4997083;28;20447;-78
2023/08/15 16:10:25;;;;;;;3.00;2.80;;;;;;;;;;5003261;28;20443;-79
2023/08/15 16:12:51;;;;;;;3.43;3.13;;;;;;;;;;5004283;28;20435;-77
2023/08/15 16:15:18;;;;;;;3.27;3.07;;;;;;;;;;5004156;28;20506;-77
2023/08/15 16:17:45;;;;;;;6.17;3.00;;;;;;;;;;5004079;28;20440;-77
2023/08/15 16:20:12;;;;;;;3.53;3.37;;;;;;;;;;5005158;28;20666;-76
2023/08/15 16:22:38;;;;;;;3.07;2.97;;;;;;;;;;5000972;28;20648;-76
2023/08/15 16:28:08;;;;;;;4.73;3.13;;;;;;;;;;5001575;28;20449;-78
2023/08/15 16:39:46;;;;;;;4.23;3.37;;;;;;;;;;5002314;28;20482;-76
2023/08/15 16:42:12;;;;;;;3.40;3.20;;;;;;;;;;4998038;28;20479;-80
2023/08/15 16:44:38;;;;;;;4.30;3.80;;;;;;;;;;5000887;28;20422;-81
2023/08/15 16:47:05;;;;;;;3.60;3.50;;;;;;;;;;4991093;28;20432;-81
2023/08/15 16:49:31;;;;;;;4.90;3.73;;;;;;;;;;4980993;28;20792;-80
2023/08/15 16:51:57;;;;;;;3.90;3.60;;;;;;;;;;4990731;28;20957;-78
2023/08/15 21:06:33;;;;;;;5.80;5.50;;;;;;;;;;4992922;28;20730;-75
2023/08/15 21:08:59;;;;;;;6.57;6.10;;;;;;;;;;4999383;28;20466;-75
2023/08/15 21:11:25;;;;;;;7.23;6.60;;;;;;;;;;5000206;28;20451;-75
2023/08/15 21:13:51;;;;;;;6.93;6.47;;;;;;;;;;5007373;28;20538;-76
2023/08/15 21:16:24;;;;;;;7.00;6.43;;;;;;;;;;4995355;28;20446;-77
2023/08/15 21:18:50;;;;;;;7.40;6.87;;;;;;;;;;5013568;28;20615;-76
2023/08/15 21:21:16;;;;;;;10.03;9.37;;;;;;;;;;5011942;28;20462;-77
2023/08/15 21:23:42;;;;;;;8.33;7.73;;;;;;;;;;5013334;28;20432;-75
2023/08/15 21:26:08;;;;;;;8.00;7.20;;;;;;;;;;5010303;28;20475;-77
2023/08/15 21:28:34;;;;;;;7.70;7.00;;;;;;;;;;5010014;28;20913;-77
2023/08/15 21:31:00;;;;;;;7.97;7.30;;;;;;;;;;5011284;28;20522;-76
2023/08/15 21:33:26;;;;;;;7.20;6.80;;;;;;;;;;5014406;28;20489;-75
2023/08/15 21:35:52;;;;;;;7.47;6.87;;;;;;;;;;5015883;28;20924;-76
2023/08/15 21:38:19;;;;;;;7.43;7.03;;;;;;;;;;5008161;28;20655;-76
2023/08/15 21:40:48;;;;;;;8.20;7.80;;;;;;;;;;5011412;28;20434;-77
2023/08/15 21:43:15;;;;;;;9.27;8.60;;;;;;;;;;5010910;28;20942;-75
2023/08/15 21:45:41;;;;;;;8.53;7.90;;;;;;;;;;5004098;28;20450;-76
2023/08/15 21:48:08;;;;;;;10.10;7.47;;;;;;;;;;5009821;28;20469;-75
2023/08/15 21:50:34;;;;;;;8.30;7.80;;;;;;;;;;5011764;28;20430;-77
2023/08/15 21:53:00;;;;;;;11.37;8.50;;;;;;;;;;5011029;28;20463;-75
2023/08/15 21:55:26;;;;;;;8.83;8.23;;;;;;;;;;5007748;28;20443;-76
2023/08/15 22:00:56;;;;;;;8.37;7.97;;;;;;;;;;5005908;28;20508;-75
2023/08/15 22:06:25;;;;;;;8.93;8.13;;;;;;;;;;5013765;28;20573;-76
2023/08/15 22:08:51;;;;;;;10.47;9.50;;;;;;;;;;5014214;28;20515;-75
2023/08/15 22:11:17;;;;;;;8.70;8.20;;;;;;;;;;5021777;28;20430;-75
2023/08/15 22:13:43;;;;;;;11.20;10.20;;;;;;;;;;5022949;28;20430;-75
2023/08/15 22:25:44;;;;;;;11.97;10.80;;;;;;;;;;5017800;28;20406;-75
2023/08/15 22:28:10;;;;;;;11.17;9.40;;;;;;;;;;5025187;28;20762;-75
2023/08/15 22:30:36;;;;;;;11.57;10.60;;;;;;;;;;5026119;28;20437;-75
2023/08/15 22:33:02;;;;;;;10.47;9.80;;;;;;;;;;5026301;28;20561;-76
2023/08/15 22:35:38;;;;;;;9.77;9.10;;;;;;;;;;5026559;28;20440;-76
2023/08/15 22:38:04;;;;;;;10.17;9.47;;;;;;;;;;5026281;28;20533;-75
2023/08/15 22:40:30;;;;;;;11.63;10.83;;;;;;;;;;5027917;28;20469;-75
2023/08/15 22:42:56;;;;;;;10.73;9.77;;;;;;;;;;5026673;28;20427;-75
2023/08/15 22:45:22;;;;;;;10.30;9.70;;;;;;;;;;5026617;28;20552;-75
2023/08/15 22:47:48;;;;;;;11.27;9.90;;;;;;;;;;5024457;28;20920;-74
2023/08/15 22:50:14;;;;;;;11.33;10.33;;;;;;;;;;5024143;28;20711;-77
2023/08/15 22:58:47;;;;;;;9.03;8.53;;;;;;;;;;5018227;28;20418;-75
2023/08/15 23:04:18;;;;;;;8.57;7.97;;;;;;;;;;5026018;28;20452;-77
2023/08/15 23:06:44;;;;;;;9.90;9.10;;;;;;;;;;5024700;28;20529;-76
2023/08/15 23:09:12;;;;;;;12.27;9.10;;;;;;;;;;5025875;28;20975;-76
2023/08/15 23:11:39;;;;;;;9.77;8.80;;;;;;;;;;5019127;28;20471;-76
2023/08/15 23:14:05;;;;;;;9.70;9.00;;;;;;;;;;5025878;28;20995;-77
2023/08/15 23:29:12;;;;;;;9.73;9.07;;;;;;;;;;5018668;28;20819;-76
2023/08/15 23:31:38;;;;;;;9.37;8.67;;;;;;;;;;5025774;28;20454;-76
2023/08/15 23:43:19;;;;;;;7.37;7.03;;;;;;;;;;5022433;28;20480;-77
2023/08/15 23:45:47;;;;;;;8.63;7.90;;;;;;;;;;5007626;28;20454;-77
2023/08/15 23:48:13;;;;;;;9.50;8.70;;;;;;;;;;5016806;28;20968;-77
2023/08/15 23:50:39;;;;;;;8.07;7.67;;;;;;;;;;5025114;28;20407;-77
2023/08/15 23:53:05;;;;;;;8.80;8.50;;;;;;;;;;5025127;28;20461;-77
